createdAt,value
2024-05-09T00:00:22.036Z,83.46
2024-05-09T00:01:14.665Z,83.36
2024-05-09T00:02:14.577Z,83.15
2024-05-09T00:03:14.589Z,82.95
2024-05-09T00:04:14.558Z,82.95
2024-05-09T00:05:14.792Z,83.15
2024-05-09T00:06:14.554Z,83.77
2024-05-09T00:07:14.505Z,83.98
2024-05-09T00:08:14.555Z,83.98
2024-05-09T00:09:14.473Z,83.98
2024-05-09T00:10:22.631Z,83.91
2024-05-09T00:11:14.586Z,84.01
2024-05-09T00:12:14.464Z,83.81
2024-05-09T00:13:14.421Z,83.91
2024-05-09T00:14:14.444Z,84.63
2024-05-09T00:15:14.399Z,84.26
2024-05-09T00:16:14.461Z,84.88
2024-05-09T00:17:14.504Z,85.70
2024-05-09T00:18:14.515Z,85.08
2024-05-09T00:19:14.652Z,84.26
2024-05-09T00:20:20.443Z,84.56
2024-05-09T00:21:14.407Z,85.70
2024-05-09T00:22:14.341Z,86.11
2024-05-09T00:23:14.438Z,85.39
2024-05-09T00:24:14.272Z,84.77
2024-05-09T00:25:14.268Z,84.88
2024-05-09T00:26:14.368Z,85.12
2024-05-09T00:27:14.239Z,84.81
2024-05-09T00:28:14.240Z,85.22
2024-05-09T00:29:14.269Z,85.43
2024-05-09T00:30:21.127Z,85.53
2024-05-09T00:31:14.188Z,85.74
2024-05-09T00:32:14.247Z,85.36
2024-05-09T00:33:14.456Z,85.78
2024-05-09T00:34:14.275Z,85.98
2024-05-09T00:35:14.197Z,85.98
2024-05-09T00:36:14.120Z,85.26
2024-05-09T00:37:14.114Z,85.47
2024-05-09T00:38:14.152Z,85.68
2024-05-09T00:39:14.092Z,86.08
2024-05-09T00:40:18.779Z,86.60
2024-05-09T00:41:16.350Z,86.60
2024-05-09T00:42:14.047Z,86.40
2024-05-09T00:43:15.025Z,85.78
2024-05-09T00:44:14.026Z,85.68
2024-05-09T00:45:13.986Z,85.78
2024-05-09T00:46:13.971Z,85.84
2024-05-09T00:47:14.092Z,85.63
2024-05-09T00:48:16.301Z,85.84
2024-05-09T00:49:14.001Z,85.33
2024-05-09T00:50:19.291Z,85.22
2024-05-09T00:51:13.999Z,85.36
2024-05-09T00:52:13.914Z,85.63
2024-05-09T00:53:14.006Z,85.68
2024-05-09T00:54:13.873Z,85.78
2024-05-09T00:55:13.883Z,85.26
2024-05-09T00:56:13.872Z,85.68
2024-05-09T00:57:13.851Z,85.47
2024-05-09T00:58:13.813Z,85.57
2024-05-09T00:59:13.894Z,85.78
2024-05-09T01:00:22.624Z,86.29
2024-05-09T01:01:13.825Z,87.12
2024-05-09T01:02:13.941Z,86.29
2024-05-09T01:03:14.535Z,85.68
2024-05-09T01:04:13.798Z,86.19
2024-05-09T01:05:13.780Z,86.08
2024-05-09T01:06:13.716Z,86.08
2024-05-09T01:07:13.710Z,85.78
2024-05-09T01:08:13.774Z,85.36
2024-05-09T01:09:13.707Z,85.68
2024-05-09T01:10:20.858Z,85.68
2024-05-09T01:11:13.708Z,85.78
2024-05-09T01:12:13.916Z,86.08
2024-05-09T01:13:13.671Z,86.70
2024-05-09T01:14:13.698Z,86.29
2024-05-09T01:15:13.627Z,86.19
2024-05-09T01:16:13.610Z,86.50
2024-05-09T01:17:13.650Z,86.50
2024-05-09T01:18:14.120Z,85.98
2024-05-09T01:19:13.759Z,85.98
2024-05-09T01:20:20.032Z,85.98
2024-05-09T01:21:13.859Z,86.08
2024-05-09T01:22:13.686Z,86.19
2024-05-09T01:23:15.436Z,85.88
2024-05-09T01:24:13.476Z,86.19
2024-05-09T01:25:13.520Z,86.19
2024-05-09T01:26:13.549Z,86.29
2024-05-09T01:27:13.441Z,86.05
2024-05-09T01:28:13.455Z,86.25
2024-05-09T01:29:13.466Z,85.94
2024-05-09T01:30:17.425Z,85.78
2024-05-09T01:31:13.398Z,85.68
2024-05-09T01:32:13.538Z,85.57
2024-05-09T01:33:13.877Z,86.08
2024-05-09T01:34:13.496Z,85.98
2024-05-09T01:35:13.352Z,86.70
2024-05-09T01:36:13.340Z,86.70
2024-05-09T01:37:13.355Z,86.91
2024-05-09T01:38:13.992Z,86.60
2024-05-09T01:39:13.287Z,86.29
2024-05-09T01:40:18.536Z,86.80
2024-05-09T01:41:13.309Z,86.70
2024-05-09T01:42:13.236Z,86.40
2024-05-09T01:43:13.290Z,86.08
2024-05-09T01:44:13.242Z,86.19
2024-05-09T01:45:13.237Z,86.19
2024-05-09T01:46:13.194Z,86.54
2024-05-09T01:47:13.296Z,86.64
2024-05-09T01:48:13.386Z,86.85
2024-05-09T01:49:13.295Z,87.36
2024-05-09T01:50:16.401Z,87.46
2024-05-09T01:51:13.312Z,86.74
2024-05-09T01:52:13.134Z,86.95
2024-05-09T01:53:13.760Z,87.05
2024-05-09T01:54:13.082Z,87.46
2024-05-09T01:55:13.090Z,87.09
2024-05-09T01:56:13.096Z,86.79
2024-05-09T01:57:13.076Z,87.40
2024-05-09T01:58:13.050Z,87.60
2024-05-09T01:59:13.078Z,87.51
2024-05-09T02:00:15.771Z,87.40
2024-05-09T02:01:13.084Z,87.30
2024-05-09T02:02:13.103Z,87.81
2024-05-09T02:03:15.921Z,88.02
2024-05-09T02:04:13.099Z,87.60
2024-05-09T02:05:13.127Z,87.09
2024-05-09T02:06:13.057Z,87.40
2024-05-09T02:07:12.915Z,87.60
2024-05-09T02:08:13.030Z,87.81
2024-05-09T02:09:12.906Z,87.81
2024-05-09T02:10:20.172Z,87.51
2024-05-09T02:11:13.023Z,87.30
2024-05-09T02:12:13.072Z,87.92
2024-05-09T02:13:12.944Z,87.60
2024-05-09T02:14:12.882Z,87.92
2024-05-09T02:15:12.827Z,88.02
2024-05-09T02:16:12.825Z,87.92
2024-05-09T02:17:12.825Z,87.71
2024-05-09T02:18:13.430Z,87.81
2024-05-09T02:19:13.039Z,88.12
2024-05-09T02:20:18.905Z,87.81
2024-05-09T02:21:12.780Z,87.40
2024-05-09T02:22:12.746Z,87.51
2024-05-09T02:23:12.996Z,87.71
2024-05-09T02:24:12.693Z,87.71
2024-05-09T02:25:12.688Z,88.23
2024-05-09T02:26:12.768Z,88.33
2024-05-09T02:27:12.669Z,88.33
2024-05-09T02:28:12.663Z,88.12
2024-05-09T02:29:12.663Z,88.64
2024-05-09T02:30:18.970Z,88.43
2024-05-09T02:31:12.606Z,88.26
2024-05-09T02:32:12.663Z,88.23
2024-05-09T02:33:14.232Z,88.17
2024-05-09T02:34:12.680Z,87.75
2024-05-09T02:35:12.603Z,88.26
2024-05-09T02:36:12.556Z,88.37
2024-05-09T02:37:12.536Z,87.96
2024-05-09T02:38:13.125Z,88.06
2024-05-09T02:39:12.502Z,88.47
2024-05-09T02:40:14.902Z,88.26
2024-05-09T02:41:12.517Z,88.51
2024-05-09T02:42:12.459Z,88.62
2024-05-09T02:43:13.094Z,88.72
2024-05-09T02:44:12.506Z,88.72
2024-05-09T02:45:12.420Z,88.92
2024-05-09T02:46:12.426Z,88.72
2024-05-09T02:47:12.502Z,89.48
2024-05-09T02:48:13.543Z,89.58
2024-05-09T02:49:12.644Z,89.69
2024-05-09T02:51:12.393Z,90.00
2024-05-09T02:52:12.331Z,90.31
2024-05-09T02:53:12.483Z,90.10
2024-05-09T02:54:12.342Z,90.10
2024-05-09T02:55:12.287Z,89.89
2024-05-09T02:56:12.347Z,89.73
2024-05-09T02:57:12.273Z,90.14
2024-05-09T02:58:12.350Z,90.04
2024-05-09T02:59:12.350Z,90.55
2024-05-09T03:00:18.813Z,91.48
2024-05-09T03:01:12.296Z,91.17
2024-05-09T03:02:12.374Z,91.17
2024-05-09T03:03:14.446Z,90.66
2024-05-09T03:04:12.226Z,90.55
2024-05-09T03:05:12.204Z,90.97
2024-05-09T03:06:12.179Z,90.66
2024-05-09T03:07:12.163Z,91.07
2024-05-09T03:08:12.397Z,90.97
2024-05-09T03:09:12.120Z,90.86
2024-05-09T03:10:18.443Z,90.55
2024-05-09T03:11:12.322Z,90.66
2024-05-09T03:12:12.273Z,90.55
2024-05-09T03:13:13.242Z,90.14
2024-05-09T03:14:12.112Z,90.45
2024-05-09T03:15:12.023Z,90.45
2024-05-09T03:16:12.029Z,90.20
2024-05-09T03:17:12.109Z,90.10
2024-05-09T03:18:12.750Z,89.89
2024-05-09T03:19:12.474Z,89.62
2024-05-09T03:20:20.327Z,89.62
2024-05-09T03:21:11.983Z,89.94
2024-05-09T03:22:11.975Z,90.14
2024-05-09T03:23:12.096Z,90.49
2024-05-09T03:24:11.997Z,91.01
2024-05-09T03:25:11.977Z,91.07
2024-05-09T03:26:12.146Z,90.55
2024-05-09T03:27:11.977Z,90.59
2024-05-09T03:28:11.978Z,90.80
2024-05-09T03:29:11.912Z,91.01
2024-05-09T03:31:11.814Z,91.32
2024-05-09T03:32:12.175Z,90.91
2024-05-09T03:33:13.353Z,91.22
2024-05-09T03:34:11.845Z,91.63
2024-05-09T03:35:11.787Z,91.22
2024-05-09T03:36:11.781Z,90.80
2024-05-09T03:37:11.757Z,90.97
2024-05-09T03:38:11.853Z,90.97
2024-05-09T03:39:11.721Z,90.86
2024-05-09T03:40:17.497Z,90.25
2024-05-09T03:41:11.797Z,90.14
2024-05-09T03:42:11.706Z,90.91
2024-05-09T03:43:11.665Z,91.22
2024-05-09T03:44:11.786Z,91.22
2024-05-09T03:45:11.660Z,91.32
2024-05-09T03:46:11.659Z,91.52
2024-05-09T03:47:11.678Z,92.04
2024-05-09T03:48:11.981Z,91.73
2024-05-09T03:49:11.710Z,91.28
2024-05-09T03:50:18.346Z,91.07
2024-05-09T03:51:11.873Z,91.07
2024-05-09T03:52:11.582Z,90.97
2024-05-09T03:53:11.746Z,90.49
2024-05-09T03:54:11.548Z,90.80
2024-05-09T03:55:11.511Z,91.01
2024-05-09T03:56:11.540Z,91.32
2024-05-09T03:57:11.501Z,91.32
2024-05-09T03:58:11.519Z,91.11
2024-05-09T03:59:11.570Z,91.38
2024-05-09T04:00:17.884Z,91.38
2024-05-09T04:01:11.530Z,90.66
2024-05-09T04:02:11.517Z,90.45
2024-05-09T04:03:12.850Z,90.86
2024-05-09T04:04:11.482Z,91.28
2024-05-09T04:05:11.416Z,90.97
2024-05-09T04:06:11.370Z,90.20
2024-05-09T04:07:11.370Z,89.83
2024-05-09T04:08:11.759Z,90.25
2024-05-09T04:09:11.329Z,90.04
2024-05-09T04:10:20.665Z,90.25
2024-05-09T04:11:11.423Z,90.66
2024-05-09T04:12:11.368Z,90.55
2024-05-09T04:13:11.370Z,90.45
2024-05-09T04:14:11.304Z,90.45
2024-05-09T04:15:13.251Z,90.04
2024-05-09T04:16:11.239Z,90.86
2024-05-09T04:17:11.418Z,90.86
2024-05-09T04:18:11.350Z,91.07
2024-05-09T04:19:11.326Z,91.07
2024-05-09T04:20:21.070Z,90.97
2024-05-09T04:21:11.235Z,91.17
2024-05-09T04:22:11.169Z,91.07
2024-05-09T04:23:11.474Z,91.17
2024-05-09T04:24:11.168Z,90.97
2024-05-09T04:25:11.120Z,90.97
2024-05-09T04:26:11.202Z,91.07
2024-05-09T04:27:11.108Z,91.28
2024-05-09T04:28:11.091Z,91.07
2024-05-09T04:29:11.112Z,91.17
2024-05-09T04:30:18.566Z,90.86
2024-05-09T04:31:11.100Z,90.92
2024-05-09T04:32:11.141Z,91.03
2024-05-09T04:33:13.138Z,90.61
2024-05-09T04:34:11.138Z,90.20
2024-05-09T04:35:11.042Z,90.41
2024-05-09T04:36:11.006Z,90.16
2024-05-09T04:37:10.984Z,90.16
2024-05-09T04:38:11.085Z,89.75
2024-05-09T04:39:10.945Z,89.65
2024-05-09T04:40:20.927Z,90.06
2024-05-09T04:41:10.988Z,89.50
2024-05-09T04:42:10.918Z,89.19
2024-05-09T04:43:10.888Z,88.89
2024-05-09T04:44:10.939Z,88.89
2024-05-09T04:45:10.881Z,88.68
2024-05-09T04:46:10.867Z,88.89
2024-05-09T04:47:10.985Z,89.29
2024-05-09T04:48:11.139Z,88.99
2024-05-09T04:49:10.908Z,88.95
2024-05-09T04:50:14.539Z,88.74
2024-05-09T04:51:10.855Z,88.23
2024-05-09T04:52:10.776Z,87.81
2024-05-09T04:53:11.596Z,87.60
2024-05-09T04:54:18.699Z,87.92
2024-05-09T04:55:10.753Z,87.98
2024-05-09T04:56:10.755Z,87.77
2024-05-09T04:57:10.762Z,87.26
2024-05-09T04:58:10.708Z,87.15
2024-05-09T04:59:10.701Z,87.05
2024-05-09T05:00:14.782Z,86.85
2024-05-09T05:01:10.712Z,87.05
2024-05-09T05:02:10.778Z,87.15
2024-05-09T05:03:13.027Z,86.23
2024-05-09T05:04:10.709Z,86.33
2024-05-09T05:05:11.967Z,86.64
2024-05-09T05:06:10.706Z,86.23
2024-05-09T05:07:10.595Z,86.60
2024-05-09T05:08:10.657Z,86.40
2024-05-09T05:09:10.576Z,86.08
2024-05-09T05:10:14.867Z,86.50
2024-05-09T05:11:10.566Z,86.60
2024-05-09T05:12:10.656Z,86.80
2024-05-09T05:13:10.503Z,86.91
2024-05-09T05:14:10.620Z,86.91
2024-05-09T05:15:10.490Z,86.56
2024-05-09T05:16:10.463Z,86.66
2024-05-09T05:17:10.476Z,85.94
2024-05-09T05:18:10.579Z,85.22
2024-05-09T05:19:13.511Z,85.12
2024-05-09T05:20:15.065Z,85.53
2024-05-09T05:21:10.484Z,85.53
2024-05-09T05:22:10.383Z,85.02
2024-05-09T05:23:10.439Z,85.02
2024-05-09T05:24:10.372Z,85.63
2024-05-09T05:25:10.355Z,85.53
2024-05-09T05:26:10.350Z,85.63
2024-05-09T05:27:10.330Z,86.05
2024-05-09T05:28:10.476Z,85.70
2024-05-09T05:29:10.322Z,86.11
2024-05-09T05:30:17.541Z,86.42
2024-05-09T05:31:10.333Z,86.42
2024-05-09T05:32:10.372Z,85.46
2024-05-09T05:33:10.422Z,85.35
2024-05-09T05:34:10.305Z,85.04
2024-05-09T05:35:10.295Z,85.25
2024-05-09T05:36:10.227Z,84.69
2024-05-09T05:37:10.212Z,84.90
2024-05-09T05:38:10.352Z,84.28
2024-05-09T05:39:10.192Z,84.49
2024-05-09T05:40:14.600Z,84.69
2024-05-09T05:41:10.204Z,84.14
2024-05-09T05:42:10.166Z,83.32
2024-05-09T05:43:10.677Z,83.32
2024-05-09T05:44:10.165Z,82.81
2024-05-09T05:45:10.087Z,83.18
2024-05-09T05:46:10.075Z,83.28
2024-05-09T05:47:10.194Z,83.07
2024-05-09T05:48:10.223Z,82.87
2024-05-09T05:49:10.431Z,82.36
2024-05-09T05:50:20.412Z,81.81
2024-05-09T05:51:10.070Z,81.71
2024-05-09T05:52:10.034Z,82.42
2024-05-09T05:53:10.564Z,82.59
2024-05-09T05:54:09.970Z,82.28
2024-05-09T05:55:09.982Z,82.04
2024-05-09T05:56:09.995Z,82.04
2024-05-09T05:57:09.950Z,81.22
2024-05-09T05:58:09.923Z,81.12
2024-05-09T05:59:11.009Z,80.16
2024-05-09T06:00:12.127Z,79.54
2024-05-09T06:01:09.915Z,80.05
2024-05-09T06:02:09.959Z,79.85
2024-05-09T06:03:10.794Z,79.96
2024-05-09T06:04:10.028Z,80.53
2024-05-09T06:05:10.055Z,80.94
2024-05-09T06:06:09.910Z,79.91
2024-05-09T06:07:09.807Z,79.47
2024-05-09T06:08:09.846Z,79.16
2024-05-09T06:09:09.783Z,77.22
2024-05-09T06:10:17.276Z,76.61
2024-05-09T06:11:09.862Z,77.12
2024-05-09T06:12:09.925Z,77.90
2024-05-09T06:13:09.717Z,77.19
2024-05-09T06:14:09.741Z,76.98
2024-05-09T06:15:09.690Z,76.47
2024-05-09T06:16:09.678Z,76.67
2024-05-09T06:17:09.756Z,76.03
2024-05-09T06:18:11.089Z,75.41
2024-05-09T06:19:09.770Z,75.31
2024-05-09T06:20:20.094Z,74.80
2024-05-09T06:21:09.692Z,74.39
2024-05-09T06:22:09.640Z,74.69
2024-05-09T06:23:10.364Z,74.39
2024-05-09T06:24:09.584Z,74.39
2024-05-09T06:25:09.580Z,74.15
2024-05-09T06:26:09.587Z,74.46
2024-05-09T06:27:09.550Z,75.17
2024-05-09T06:28:09.541Z,75.37
2024-05-09T06:29:09.539Z,76.09
2024-05-09T06:30:14.445Z,75.27
2024-05-09T06:31:09.501Z,75.13
2024-05-09T06:32:09.598Z,74.32
2024-05-09T06:33:10.853Z,73.30
2024-05-09T06:34:09.536Z,73.30
2024-05-09T06:35:09.444Z,73.19
2024-05-09T06:36:09.431Z,72.79
2024-05-09T06:37:09.426Z,72.79
2024-05-09T06:38:09.929Z,72.75
2024-05-09T06:39:09.374Z,72.65
2024-05-09T06:40:09.972Z,71.73
2024-05-09T06:41:09.407Z,71.33
2024-05-09T06:42:09.350Z,71.73
2024-05-09T06:43:09.342Z,72.24
2024-05-09T06:44:09.392Z,71.50
2024-05-09T06:45:09.315Z,71.60
2024-05-09T06:46:09.299Z,70.78
2024-05-09T06:47:09.517Z,70.78
2024-05-09T06:48:10.051Z,70.98
2024-05-09T06:49:09.443Z,70.75
2024-05-09T06:50:19.572Z,70.95
2024-05-09T06:51:09.359Z,71.46
2024-05-09T06:52:09.198Z,71.63
2024-05-09T06:53:09.602Z,71.84
2024-05-09T06:54:09.167Z,72.34
2024-05-09T06:55:09.205Z,71.43
2024-05-09T06:56:09.211Z,72.21
2024-05-09T06:57:09.149Z,71.91
2024-05-09T06:58:09.292Z,70.89
2024-05-09T06:59:09.133Z,70.17
2024-05-09T07:00:15.475Z,69.02
2024-05-09T07:01:09.179Z,68.51
2024-05-09T07:02:09.160Z,67.29
2024-05-09T07:03:09.770Z,67.08
2024-05-09T07:04:09.324Z,66.38
2024-05-09T07:05:09.105Z,65.86
2024-05-09T07:06:09.134Z,67.08
2024-05-09T07:07:09.033Z,68.01
2024-05-09T07:08:09.023Z,68.62
2024-05-09T07:09:09.012Z,68.82
2024-05-09T07:10:12.255Z,67.87
2024-05-09T07:11:09.043Z,67.97
2024-05-09T07:12:09.115Z,67.97
2024-05-09T07:13:08.964Z,66.55
2024-05-09T07:14:08.996Z,64.61
2024-05-09T07:15:08.918Z,66.44
2024-05-09T07:16:08.909Z,65.22
2024-05-09T07:17:09.184Z,64.61
2024-05-09T07:18:09.057Z,64.41
2024-05-09T07:19:09.093Z,65.33
2024-05-09T07:20:11.838Z,65.43
2024-05-09T07:21:08.924Z,64.72
2024-05-09T07:22:08.818Z,64.89
2024-05-09T07:23:08.909Z,66.21
2024-05-09T07:24:08.787Z,66.52
2024-05-09T07:25:08.796Z,65.30
2024-05-09T07:26:08.810Z,65.39
2024-05-09T07:27:08.746Z,65.60
2024-05-09T07:28:08.756Z,66.08
2024-05-09T07:29:08.796Z,65.67
2024-05-09T07:30:11.501Z,66.38
2024-05-09T07:31:08.727Z,66.69
2024-05-09T07:32:08.731Z,65.97
2024-05-09T07:33:08.914Z,64.86
2024-05-09T07:34:08.817Z,64.32
2024-05-09T07:35:08.684Z,64.83
2024-05-09T07:36:08.672Z,65.44
2024-05-09T07:37:08.635Z,64.01
2024-05-09T07:38:08.686Z,65.54
2024-05-09T07:39:08.629Z,63.68
2024-05-09T07:40:11.978Z,63.91
2024-05-09T07:41:08.618Z,64.39
2024-05-09T07:42:08.558Z,63.28
2024-05-09T07:43:08.554Z,62.97
2024-05-09T07:44:08.568Z,64.39
2024-05-09T07:45:29.559Z,62.76
2024-05-09T07:47:13.773Z,62.66
2024-05-09T07:50:33.317Z,63.68
2024-05-09T07:53:21.178Z,64.09
2024-05-09T07:53:47.263Z,63.14
2024-05-09T07:53:58.430Z,63.14
2024-05-09T07:54:54.070Z,62.56
2024-05-09T07:55:54.066Z,62.94
2024-05-09T07:56:53.921Z,62.53
2024-05-09T07:57:53.824Z,63.04
2024-05-09T07:58:54.396Z,63.32
2024-05-09T07:59:53.768Z,61.90
2024-05-09T08:00:53.831Z,62.40
2024-05-09T08:01:53.862Z,62.10
2024-05-09T08:02:53.743Z,61.25
2024-05-09T08:03:54.007Z,60.55
2024-05-09T08:04:53.796Z,59.74
2024-05-09T08:05:53.714Z,59.53
2024-05-09T08:06:53.689Z,60.65
2024-05-09T08:07:53.660Z,60.24
2024-05-09T08:08:53.646Z,60.35
2024-05-09T08:09:53.644Z,60.31
2024-05-09T08:10:53.698Z,61.43
2024-05-09T08:11:53.606Z,59.91
2024-05-09T08:12:53.616Z,60.52
2024-05-09T08:13:53.571Z,59.70
2024-05-09T08:14:53.529Z,59.07
2024-05-09T08:15:53.570Z,58.06
2024-05-09T08:16:53.616Z,58.76
2024-05-09T08:17:53.601Z,57.65
2024-05-09T08:18:53.603Z,58.56
2024-05-09T08:19:53.503Z,58.26
2024-05-09T08:20:53.556Z,58.16
2024-05-09T08:21:53.494Z,58.76
2024-05-09T08:22:53.439Z,58.23
2024-05-09T08:23:53.440Z,58.64
2024-05-09T08:24:53.447Z,56.92
2024-05-09T08:25:53.419Z,55.90
2024-05-09T08:26:53.387Z,55.70
2024-05-09T08:27:53.375Z,55.90
2024-05-09T08:28:53.382Z,56.51
2024-05-09T08:29:53.352Z,56.51
2024-05-09T08:30:53.448Z,56.01
2024-05-09T08:31:53.326Z,57.32
2024-05-09T08:32:53.358Z,56.71
2024-05-09T08:33:53.485Z,56.71
2024-05-09T08:34:53.365Z,57.60
2024-05-09T08:35:53.275Z,56.99
2024-05-09T08:36:53.392Z,56.28
2024-05-09T08:37:53.329Z,57.20
2024-05-09T08:38:53.218Z,57.20
2024-05-09T08:39:53.258Z,57.98
2024-05-09T08:40:53.326Z,59.19
2024-05-09T08:41:53.214Z,58.78
2024-05-09T08:42:53.274Z,58.96
2024-05-09T08:43:53.164Z,58.25
2024-05-09T08:44:53.203Z,56.02
2024-05-09T08:45:53.192Z,55.49
2024-05-09T08:46:53.208Z,55.19
2024-05-09T08:47:53.204Z,53.78
2024-05-09T08:48:53.302Z,54.11
2024-05-09T08:49:53.083Z,54.61
2024-05-09T08:50:53.271Z,54.71
2024-05-09T08:51:59.127Z,55.11
2024-05-09T08:52:53.059Z,56.23
2024-05-09T08:53:53.023Z,54.41
2024-05-09T08:54:53.075Z,54.58
2024-05-09T08:55:53.016Z,53.78
2024-05-09T08:56:53.000Z,55.60
2024-05-09T08:57:53.051Z,54.69
2024-05-09T08:58:52.978Z,55.98
2024-05-09T08:59:52.964Z,56.48
2024-05-09T09:00:53.078Z,55.47
2024-05-09T09:01:53.059Z,54.16
2024-05-09T09:02:53.000Z,54.03
2024-05-09T09:03:53.186Z,53.02
2024-05-09T09:04:53.049Z,53.22
2024-05-09T09:05:53.160Z,52.21
2024-05-09T09:06:54.755Z,52.79
2024-05-09T09:07:52.840Z,52.89
2024-05-09T09:08:52.880Z,51.68
2024-05-09T09:09:52.894Z,50.47
2024-05-09T09:10:52.854Z,50.67
2024-05-09T09:11:52.884Z,49.99
2024-05-09T09:12:52.860Z,51.50
2024-05-09T09:13:52.810Z,48.27
2024-05-09T09:14:52.871Z,44.74
2024-05-09T09:15:52.855Z,45.14
2024-05-09T09:16:52.797Z,45.85
2024-05-09T09:17:53.055Z,45.04
2024-05-09T09:18:53.132Z,45.95
2024-05-09T09:19:52.807Z,46.05
2024-05-09T09:20:52.782Z,46.96
2024-05-09T09:21:52.736Z,45.34
2024-05-09T09:22:52.727Z,43.83
2024-05-09T09:23:52.642Z,45.32
2024-05-09T09:24:52.754Z,43.40
2024-05-09T09:25:52.624Z,44.82
2024-05-09T09:26:52.597Z,41.89
2024-05-09T09:27:52.615Z,43.10
2024-05-09T09:28:52.587Z,43.00
2024-05-09T09:29:52.563Z,43.89
2024-05-09T09:30:52.604Z,44.59
2024-05-09T09:31:52.575Z,45.10
2024-05-09T09:32:52.661Z,45.10
2024-05-09T09:33:52.712Z,47.02
2024-05-09T09:34:52.547Z,46.61
2024-05-09T09:35:52.471Z,45.78
2024-05-09T09:36:52.542Z,44.78
2024-05-09T09:37:52.473Z,46.19
2024-05-09T09:38:52.454Z,45.68
2024-05-09T09:39:52.482Z,44.70
2024-05-09T09:40:52.501Z,44.79
2024-05-09T09:41:52.409Z,46.99
2024-05-09T09:42:52.438Z,46.29
2024-05-09T09:43:52.381Z,43.77
2024-05-09T09:45:01.891Z,46.89
2024-05-09T09:45:53.335Z,45.58
2024-05-09T09:46:52.382Z,45.78
2024-05-09T09:47:52.455Z,45.46
2024-05-09T09:48:52.402Z,44.35
2024-05-09T09:49:52.369Z,43.85
2024-05-09T09:50:52.442Z,43.95
2024-05-09T09:51:52.295Z,43.65
2024-05-09T09:52:52.257Z,45.16
2024-05-09T09:53:52.241Z,42.94
2024-05-09T09:54:52.250Z,43.06
2024-05-09T09:55:52.295Z,44.98
2024-05-09T09:56:52.204Z,44.47
2024-05-09T09:57:52.213Z,44.45
2024-05-09T09:58:52.273Z,44.95
2024-05-09T09:59:52.161Z,45.36
2024-05-09T10:00:52.247Z,46.65
2024-05-09T10:01:52.233Z,45.74
2024-05-09T10:02:52.171Z,43.32
2024-05-09T10:03:52.226Z,42.61
2024-05-09T10:04:52.210Z,42.21
2024-05-09T10:05:52.147Z,41.91
2024-05-09T10:06:52.217Z,42.61
2024-05-09T10:07:52.070Z,44.13
2024-05-09T10:08:52.069Z,45.62
2024-05-09T10:09:52.126Z,43.71
2024-05-09T10:10:52.411Z,43.30
2024-05-09T10:11:54.461Z,43.20
2024-05-09T10:12:52.042Z,43.60
2024-05-09T10:13:52.001Z,41.79
2024-05-09T10:14:51.981Z,41.69
2024-05-09T10:15:52.465Z,41.79
2024-05-09T10:16:51.947Z,41.39
2024-05-09T10:17:51.999Z,41.19
2024-05-09T10:18:52.130Z,41.00
2024-05-09T10:19:51.958Z,41.61
2024-05-09T10:20:51.918Z,40.30
2024-05-09T10:21:51.920Z,41.00
2024-05-09T10:22:51.898Z,41.31
2024-05-09T10:23:51.856Z,41.71
2024-05-09T10:24:51.912Z,41.81
2024-05-09T10:25:51.831Z,41.41
2024-05-09T10:26:51.829Z,41.09
2024-05-09T10:27:51.876Z,42.80
2024-05-09T10:28:51.806Z,39.37
2024-05-09T10:29:51.758Z,40.70
2024-05-09T10:30:51.799Z,40.20
2024-05-09T10:31:51.815Z,42.10
2024-05-09T10:32:51.800Z,41.79
2024-05-09T10:33:52.686Z,40.18
2024-05-09T10:34:51.753Z,39.76
2024-05-09T10:35:51.693Z,42.38
2024-05-09T10:36:51.737Z,44.29
2024-05-09T10:37:51.671Z,42.05
2024-05-09T10:38:51.653Z,44.37
2024-05-09T10:39:51.733Z,43.74
2024-05-09T10:40:51.657Z,42.33
2024-05-09T10:41:51.623Z,38.71
2024-05-09T10:42:51.659Z,39.62
2024-05-09T10:43:51.843Z,39.82
2024-05-09T10:44:51.585Z,38.43
2024-05-09T10:45:51.595Z,39.25
2024-05-09T10:46:51.626Z,39.56
2024-05-09T10:47:51.987Z,39.25
2024-05-09T10:48:51.658Z,40.56
2024-05-09T10:49:51.565Z,39.96
2024-05-09T10:50:51.482Z,41.57
2024-05-09T10:51:51.559Z,41.35
2024-05-09T10:52:51.488Z,39.54
2024-05-09T10:53:51.466Z,39.15
2024-05-09T10:54:51.442Z,38.65
2024-05-09T10:55:51.436Z,39.17
2024-05-09T10:56:51.516Z,40.38
2024-05-09T10:57:51.479Z,40.58
2024-05-09T10:58:51.416Z,40.56
2024-05-09T10:59:51.369Z,39.86
2024-05-09T11:00:51.451Z,41.27
2024-05-09T11:01:51.483Z,39.45
2024-05-09T11:02:51.399Z,39.76
2024-05-09T11:03:51.455Z,40.84
2024-05-09T11:04:51.431Z,41.05
2024-05-09T11:05:51.401Z,39.84
2024-05-09T11:06:51.323Z,40.75
2024-05-09T11:07:51.278Z,41.03
2024-05-09T11:08:51.289Z,40.92
2024-05-09T11:09:51.348Z,38.71
2024-05-09T11:10:51.276Z,39.01
2024-05-09T11:11:51.257Z,39.01
2024-05-09T11:12:51.262Z,40.04
2024-05-09T11:13:51.183Z,41.63
2024-05-09T11:14:51.193Z,42.13
2024-05-09T11:15:51.234Z,41.21
2024-05-09T11:16:51.156Z,41.61
2024-05-09T11:17:51.203Z,41.69
2024-05-09T11:18:51.325Z,41.19
2024-05-09T11:19:51.159Z,40.99
2024-05-09T11:20:51.182Z,43.08
2024-05-09T11:21:51.200Z,37.46
2024-05-09T11:22:51.094Z,37.87
2024-05-09T11:23:51.062Z,38.88
2024-05-09T11:24:51.075Z,40.39
2024-05-09T11:25:51.038Z,41.17
2024-05-09T11:26:51.021Z,39.97
2024-05-09T11:27:51.157Z,43.08
2024-05-09T11:28:51.159Z,39.66
2024-05-09T11:29:50.993Z,39.25
2024-05-09T11:30:51.038Z,40.45
2024-05-09T11:31:51.009Z,43.56
2024-05-09T11:32:51.001Z,41.63
2024-05-09T11:33:51.018Z,40.63
2024-05-09T11:34:50.914Z,40.03
2024-05-09T11:35:50.897Z,37.92
2024-05-09T11:36:50.928Z,37.32
2024-05-09T11:37:50.874Z,38.54
2024-05-09T11:38:50.873Z,41.35
2024-05-09T11:39:50.894Z,42.63
2024-05-09T11:40:50.905Z,40.83
2024-05-09T11:41:50.821Z,38.02
2024-05-09T11:42:53.020Z,37.13
2024-05-09T11:43:50.793Z,37.74
2024-05-09T11:44:50.775Z,37.15
2024-05-09T11:45:50.809Z,37.15
2024-05-09T11:46:50.752Z,36.65
2024-05-09T11:47:50.786Z,38.56
2024-05-09T11:48:50.858Z,38.56
2024-05-09T11:49:50.765Z,39.95
2024-05-09T11:50:50.747Z,38.44
2024-05-09T11:51:50.789Z,39.04
2024-05-09T11:52:50.682Z,39.03
2024-05-09T11:53:50.693Z,38.12
2024-05-09T11:54:50.687Z,37.72
2024-05-09T11:55:50.633Z,40.13
2024-05-09T11:56:50.643Z,39.23
2024-05-09T11:57:50.735Z,38.00
2024-05-09T11:58:50.607Z,36.60
2024-05-09T11:59:50.617Z,38.51
2024-05-09T12:00:50.753Z,39.31
2024-05-09T12:01:50.616Z,37.90
2024-05-09T12:02:50.580Z,37.38
2024-05-09T12:03:50.666Z,36.10
2024-05-09T12:04:50.576Z,35.89
2024-05-09T12:05:50.671Z,35.19
2024-05-09T12:06:50.555Z,36.60
2024-05-09T12:07:50.489Z,34.99
2024-05-09T12:08:50.499Z,35.89
2024-05-09T12:09:50.500Z,34.31
2024-05-09T12:10:50.647Z,34.81
2024-05-09T12:11:50.523Z,34.61
2024-05-09T12:12:50.496Z,38.42
2024-05-09T12:13:50.456Z,36.61
2024-05-09T12:14:50.420Z,38.10
2024-05-09T12:15:50.441Z,37.80
2024-05-09T12:16:50.423Z,36.60
2024-05-09T12:17:51.082Z,36.41
2024-05-09T12:18:50.449Z,37.52
2024-05-09T12:19:50.340Z,35.41
2024-05-09T12:20:50.341Z,34.81
2024-05-09T12:21:50.395Z,34.83
2024-05-09T12:22:50.286Z,34.53
2024-05-09T12:23:50.284Z,35.73
2024-05-09T12:24:50.355Z,38.04
2024-05-09T12:25:50.283Z,37.52
2024-05-09T12:26:50.264Z,36.70
2024-05-09T12:27:50.296Z,37.00
2024-05-09T12:28:50.207Z,35.10
2024-05-09T12:29:50.210Z,36.18
2024-05-09T12:30:50.255Z,36.88
2024-05-09T12:31:50.202Z,37.68
2024-05-09T12:32:50.401Z,34.67
2024-05-09T12:33:50.257Z,33.86
2024-05-09T12:34:50.140Z,36.26
2024-05-09T12:35:51.125Z,37.46
2024-05-09T12:36:50.175Z,37.27
2024-05-09T12:37:50.107Z,35.55
2024-05-09T12:38:50.097Z,37.25
2024-05-09T12:39:50.109Z,38.65
2024-05-09T12:40:50.322Z,36.55
2024-05-09T12:41:50.031Z,36.44
2024-05-09T12:42:50.060Z,36.03
2024-05-09T12:43:50.021Z,34.16
2024-05-09T12:44:50.018Z,36.16
2024-05-09T12:45:50.026Z,36.85
2024-05-09T12:46:50.046Z,36.44
2024-05-09T12:47:50.125Z,36.73
2024-05-09T12:48:50.173Z,35.83
2024-05-09T12:49:50.021Z,34.91
2024-05-09T12:50:49.946Z,36.81
2024-05-09T12:51:49.984Z,32.71
2024-05-09T12:52:49.882Z,31.79
2024-05-09T12:53:49.903Z,30.43
2024-05-09T12:54:49.888Z,31.24
2024-05-09T12:55:56.692Z,31.14
2024-05-09T12:56:49.850Z,35.16
2024-05-09T12:57:49.883Z,32.46